createdAt,value
2019-06-26T00:00:16.232Z,36.44
2019-06-26T00:05:20.460Z,36.77
2019-06-26T00:10:24.680Z,37.08
2019-06-26T00:15:28.910Z,37.16
2019-06-26T00:20:33.151Z,37.32
2019-06-26T00:25:37.394Z,37.75
2019-06-26T00:30:41.854Z,38.22
2019-06-26T00:35:46.103Z,38.18
2019-06-26T00:40:50.306Z,38.49
2019-06-26T00:45:54.527Z,38.52
2019-06-26T00:50:58.757Z,38.90
2019-06-26T00:56:03.007Z,39.24
2019-06-26T01:01:07.262Z,39.36
2019-06-26T01:06:30.524Z,39.73
2019-06-26T01:11:34.776Z,40.10
2019-06-26T01:16:39.006Z,40.54
2019-06-26T01:21:43.594Z,41.16
2019-06-26T01:26:47.806Z,41.50
2019-06-26T01:31:52.036Z,41.75
2019-06-26T01:36:56.262Z,42.13
2019-06-26T01:42:00.528Z,42.62
2019-06-26T01:47:04.758Z,42.94
2019-06-26T01:52:09.484Z,43.46
2019-06-26T01:57:13.703Z,43.71
2019-06-26T02:02:17.983Z,44.75
2019-06-26T02:07:22.198Z,45.24
2019-06-26T02:12:26.445Z,45.64
2019-06-26T02:17:30.667Z,45.67
2019-06-26T02:22:35.734Z,46.20
2019-06-26T02:27:40.041Z,46.37
2019-06-26T02:32:44.293Z,47.10
2019-06-26T02:37:48.536Z,46.94
2019-06-26T02:42:52.764Z,47.04
2019-06-26T02:47:56.993Z,47.35
2019-06-26T02:53:01.288Z,47.58
2019-06-26T02:58:05.529Z,47.76
2019-06-26T03:03:09.820Z,47.90
2019-06-26T03:08:14.063Z,48.25
2019-06-26T03:13:18.306Z,48.04
2019-06-26T03:18:22.562Z,48.88
2019-06-26T03:23:26.813Z,49.32
2019-06-26T03:28:31.025Z,49.09
2019-06-26T03:33:35.253Z,49.27
2019-06-26T03:38:39.495Z,49.29
2019-06-26T03:43:43.755Z,49.43
2019-06-26T03:48:47.974Z,50.12
2019-06-26T03:53:52.202Z,49.99
2019-06-26T03:58:56.423Z,49.98
2019-06-26T04:04:00.696Z,50.60
2019-06-26T04:09:05.991Z,51.32
2019-06-26T04:14:10.222Z,51.78
2019-06-26T04:19:14.449Z,51.81
2019-06-26T04:24:18.673Z,51.99
2019-06-26T04:29:23.233Z,52.41
2019-06-26T04:34:27.486Z,52.85
2019-06-26T04:39:31.721Z,53.17
2019-06-26T04:44:35.980Z,53.45
2019-06-26T04:49:40.269Z,52.87
2019-06-26T04:54:44.522Z,53.12
2019-06-26T04:59:48.770Z,53.11
2019-06-26T05:04:53.019Z,53.05
2019-06-26T05:09:57.258Z,52.89
2019-06-26T05:15:01.486Z,52.99
2019-06-26T05:20:06.898Z,52.69
2019-06-26T05:25:12.449Z,53.34
2019-06-26T05:30:17.188Z,53.15
2019-06-26T05:35:21.905Z,52.79
2019-06-26T05:40:26.262Z,52.26
2019-06-26T05:45:30.499Z,53.00
2019-06-26T05:50:34.733Z,51.78
2019-06-26T05:55:38.990Z,51.62
2019-06-26T06:00:43.258Z,51.72
2019-06-26T06:05:47.492Z,50.92
2019-06-26T06:10:51.742Z,50.03
2019-06-26T06:15:56.005Z,50.05
2019-06-26T06:21:00.229Z,49.96
2019-06-26T06:26:04.480Z,49.80
2019-06-26T06:31:08.802Z,49.25
2019-06-26T06:36:13.027Z,48.92
2019-06-26T06:41:17.285Z,48.08
2019-06-26T06:46:21.495Z,47.59
2019-06-26T06:51:25.722Z,47.50
2019-06-26T06:56:29.955Z,47.53
2019-06-26T07:01:34.239Z,47.39
2019-06-26T07:06:38.561Z,46.80
2019-06-26T07:11:42.794Z,46.29
2019-06-26T07:16:47.034Z,45.66
2019-06-26T07:21:51.279Z,44.59
2019-06-26T07:26:55.527Z,44.38
2019-06-26T07:31:59.742Z,43.36
2019-06-26T07:37:03.986Z,43.46
2019-06-26T07:42:08.313Z,42.42
2019-06-26T07:47:22.431Z,41.79
2019-06-26T07:52:18.502Z,40.39
2019-06-26T07:57:22.950Z,40.49
2019-06-26T08:02:27.215Z,39.29
2019-06-26T08:07:31.477Z,37.63
2019-06-26T08:12:35.739Z,36.79
2019-06-26T08:17:39.965Z,37.48
2019-06-26T08:22:44.258Z,36.60
2019-06-26T08:27:48.502Z,36.58
2019-06-26T08:32:52.747Z,37.07
2019-06-26T08:38:09.407Z,36.36
2019-06-26T08:43:03.013Z,35.90
2019-06-26T08:48:18.825Z,35.85
2019-06-26T08:53:13.263Z,36.22
2019-06-26T08:58:17.588Z,35.39
2019-06-26T09:03:21.795Z,35.31
2019-06-26T09:08:26.228Z,35.45
2019-06-26T09:13:30.649Z,35.90
2019-06-26T09:18:36.277Z,35.56
2019-06-26T09:23:40.697Z,35.23
2019-06-26T09:28:44.918Z,34.09
2019-06-26T09:33:49.147Z,32.93
2019-06-26T09:38:53.357Z,33.12
2019-06-26T09:43:57.586Z,33.08
2019-06-26T09:49:01.857Z,32.92
2019-06-26T09:54:06.159Z,33.31
2019-06-26T09:59:10.388Z,32.95
2019-06-26T10:04:14.624Z,32.78
2019-06-26T10:09:18.859Z,32.66
2019-06-26T10:14:23.179Z,31.31
2019-06-26T10:19:27.660Z,31.07
2019-06-26T10:24:31.968Z,31.20
2019-06-26T10:29:36.214Z,31.38
2019-06-26T10:34:40.459Z,31.46
2019-06-26T10:39:44.686Z,31.29
2019-06-26T10:44:48.936Z,30.57
2019-06-26T10:49:53.171Z,30.64
2019-06-26T10:54:57.414Z,30.78
2019-06-26T11:00:01.742Z,29.32
2019-06-26T11:05:07.382Z,28.71
2019-06-26T11:10:12.021Z,28.96
2019-06-26T11:15:16.617Z,28.57
2019-06-26T11:20:20.957Z,28.01
2019-06-26T11:25:25.181Z,27.46
2019-06-26T11:30:30.749Z,25.40
2019-06-26T11:35:34.976Z,25.65
2019-06-26T11:40:39.201Z,25.53
2019-06-26T11:45:43.580Z,26.12
2019-06-26T11:50:47.883Z,25.47
2019-06-26T11:55:52.161Z,25.60
2019-06-26T12:00:56.346Z,25.69
2019-06-26T12:06:15.512Z,26.42
2019-06-26T12:11:06.563Z,26.80
2019-06-26T12:16:11.605Z,26.11
2019-06-26T12:21:15.895Z,26.35
2019-06-26T12:26:20.134Z,25.34
2019-06-26T12:31:24.413Z,24.68
2019-06-26T12:36:29.073Z,24.25
2019-06-26T12:41:33.343Z,24.15
2019-06-26T12:46:37.684Z,26.40
2019-06-26T12:51:41.980Z,26.76
2019-06-26T12:56:46.313Z,25.21
2019-06-26T13:01:50.618Z,24.32
2019-06-26T13:06:54.845Z,24.64
2019-06-26T13:11:59.072Z,23.97
2019-06-26T13:17:03.313Z,23.80
2019-06-26T13:22:07.546Z,24.19
2019-06-26T13:27:11.772Z,23.30
2019-06-26T13:32:16.848Z,23.52
2019-06-26T13:37:21.315Z,23.60
2019-06-26T13:42:25.547Z,24.24
2019-06-26T13:47:29.776Z,22.70
2019-06-26T13:52:34.042Z,22.49
2019-06-26T13:57:38.257Z,23.91
2019-06-26T14:02:42.492Z,24.53
2019-06-26T14:07:46.727Z,24.16
2019-06-26T14:12:50.952Z,23.36
2019-06-26T14:17:55.694Z,24.05
2019-06-26T14:22:59.912Z,21.78
2019-06-26T14:28:04.165Z,24.62
2019-06-26T14:33:08.392Z,27.62
2019-06-26T14:38:12.631Z,26.57
2019-06-26T14:43:16.849Z,24.06
2019-06-26T14:48:21.210Z,23.61
2019-06-26T14:53:25.499Z,23.47
2019-06-26T14:58:29.724Z,25.88
2019-06-26T15:03:33.949Z,24.62
2019-06-26T15:08:38.189Z,26.38
2019-06-26T15:13:42.427Z,23.88
2019-06-26T15:18:46.685Z,24.89
2019-06-26T15:23:50.938Z,26.33
2019-06-26T15:28:55.294Z,25.67
2019-06-26T15:33:59.533Z,24.28
2019-06-26T15:39:06.355Z,24.71
2019-06-26T15:44:10.576Z,24.87
2019-06-26T15:49:14.807Z,24.43
2019-06-26T15:54:19.123Z,25.47
2019-06-26T15:59:23.373Z,24.64
2019-06-26T16:04:27.644Z,25.51
2019-06-26T16:09:31.918Z,25.85
2019-06-26T16:14:36.172Z,24.82
2019-06-26T16:19:40.405Z,25.18
2019-06-26T16:24:44.713Z,25.50
2019-06-26T16:29:48.948Z,25.14
2019-06-26T16:34:53.176Z,24.23
2019-06-26T16:39:57.759Z,24.77
2019-06-26T16:45:01.996Z,24.88
2019-06-26T16:50:07.610Z,25.53
2019-06-26T16:55:11.867Z,25.40
2019-06-26T17:00:16.331Z,26.06
2019-06-26T17:05:20.757Z,28.18
2019-06-26T17:10:24.974Z,29.55
2019-06-26T17:15:29.262Z,30.77
2019-06-26T17:20:33.508Z,31.41
2019-06-26T17:25:37.739Z,32.11
2019-06-26T17:30:41.973Z,31.85
2019-06-26T17:35:46.249Z,31.97
2019-06-26T17:40:50.527Z,31.37
2019-06-26T17:45:55.418Z,31.40
2019-06-26T17:50:59.688Z,30.81
2019-06-26T17:56:03.938Z,30.39
2019-06-26T18:01:08.164Z,30.13
2019-06-26T18:06:12.402Z,29.74
2019-06-26T18:11:16.644Z,29.70
2019-06-26T18:16:20.879Z,29.33
2019-06-26T18:21:25.108Z,29.52
2019-06-26T18:26:29.349Z,29.60
2019-06-26T18:31:34.796Z,30.58
2019-06-26T18:36:39.031Z,30.92
2019-06-26T18:41:43.268Z,31.74
2019-06-26T18:46:47.535Z,32.89
2019-06-26T18:51:51.793Z,33.27
2019-06-26T18:56:56.023Z,33.74
2019-06-26T19:02:00.252Z,34.08
2019-06-26T19:07:04.487Z,34.32
2019-06-26T19:12:08.735Z,35.32
2019-06-26T19:17:12.972Z,35.78
2019-06-26T19:22:17.213Z,36.41
2019-06-26T19:27:21.441Z,37.23
2019-06-26T19:32:25.673Z,37.83
2019-06-26T19:37:29.923Z,38.71
2019-06-26T19:42:34.159Z,39.88
2019-06-26T19:47:38.404Z,40.71
2019-06-26T19:52:42.683Z,41.46
2019-06-26T19:57:46.946Z,42.41
2019-06-26T20:02:52.285Z,42.64
2019-06-26T20:07:57.213Z,42.42
2019-06-26T20:13:01.499Z,43.41
2019-06-26T20:18:06.502Z,43.34
2019-06-26T20:23:10.717Z,44.39
2019-06-26T20:28:14.959Z,44.69
2019-06-26T20:33:19.205Z,44.74
2019-06-26T20:38:23.434Z,44.73
2019-06-26T20:43:27.670Z,44.91
2019-06-26T20:48:31.960Z,45.53
2019-06-26T20:53:36.204Z,45.74
2019-06-26T20:58:40.448Z,46.69
2019-06-26T21:03:44.685Z,46.76
2019-06-26T21:08:48.932Z,47.11
2019-06-26T21:13:53.143Z,47.09
2019-06-26T21:18:57.371Z,47.60
2019-06-26T21:24:01.613Z,47.93
2019-06-26T21:29:05.881Z,48.47
2019-06-26T21:34:10.101Z,48.09
2019-06-26T21:39:14.333Z,48.09
2019-06-26T21:44:18.555Z,48.20
2019-06-26T21:49:22.793Z,48.65
2019-06-26T21:54:27.056Z,47.96
2019-06-26T21:59:31.402Z,47.86
2019-06-26T22:04:35.654Z,47.24
2019-06-26T22:09:39.889Z,46.05
2019-06-26T22:14:44.129Z,45.67
2019-06-26T22:19:48.636Z,45.34
2019-06-26T22:24:52.856Z,45.30
2019-06-26T22:29:57.104Z,45.61
2019-06-26T22:35:01.386Z,46.54
2019-06-26T22:40:06.152Z,47.39
2019-06-26T22:45:10.772Z,48.03
2019-06-26T22:50:15.209Z,47.79
2019-06-26T22:55:19.472Z,48.00
2019-06-26T23:00:23.712Z,48.80
2019-06-26T23:05:27.991Z,49.39
2019-06-26T23:10:32.221Z,50.59
2019-06-26T23:15:36.448Z,51.80
2019-06-26T23:20:41.309Z,52.19
2019-06-26T23:25:45.543Z,52.62
2019-06-26T23:30:49.781Z,54.29
2019-06-26T23:35:54.062Z,54.24
2019-06-26T23:40:58.344Z,54.83
2019-06-26T23:46:02.543Z,55.18
2019-06-26T23:51:06.779Z,55.83
2019-06-26T23:56:11.048Z,56.23
